createdAt,value
2022-10-18T00:02:13.421Z,11.67
2022-10-18T00:04:39.865Z,11.56
2022-10-18T00:07:06.259Z,11.45
2022-10-18T00:09:32.623Z,11.39
2022-10-18T00:11:59.517Z,11.34
2022-10-18T00:14:26.877Z,11.33
2022-10-18T00:16:53.646Z,11.31
2022-10-18T00:19:20.079Z,11.28
2022-10-18T00:21:46.456Z,11.25
2022-10-18T00:24:15.506Z,11.26
2022-10-18T00:26:41.908Z,11.22
2022-10-18T00:29:14.081Z,11.20
2022-10-18T00:31:40.653Z,11.18
2022-10-18T00:34:14.959Z,11.16
2022-10-18T00:36:42.728Z,11.15
2022-10-18T00:39:16.206Z,11.10
2022-10-18T00:41:42.641Z,11.09
2022-10-18T00:44:11.790Z,11.09
2022-10-18T00:46:40.797Z,11.07
2022-10-18T00:49:30.188Z,11.07
2022-10-18T00:52:00.104Z,11.06
2022-10-18T00:54:29.783Z,11.03
2022-10-18T00:56:56.510Z,11.02
2022-10-18T00:59:23.425Z,11.00
2022-10-18T01:01:49.888Z,11.00
2022-10-18T01:04:18.187Z,10.98
2022-10-18T01:07:13.166Z,10.96
2022-10-18T01:10:01.142Z,10.94
2022-10-18T01:13:01.918Z,10.89
2022-10-18T01:15:38.967Z,10.94
2022-10-18T01:18:20.046Z,10.92
2022-10-18T01:21:15.318Z,10.92
2022-10-18T01:24:03.391Z,11.04
2022-10-18T01:27:10.771Z,10.99
2022-10-18T01:30:15.438Z,11.04
2022-10-18T01:32:48.754Z,11.04
2022-10-18T01:35:20.201Z,11.03
2022-10-18T01:37:48.701Z,11.04
2022-10-18T01:40:19.128Z,11.06
2022-10-18T01:42:47.644Z,11.06
2022-10-18T01:45:15.586Z,11.06
2022-10-18T01:47:45.633Z,11.13
2022-10-18T01:50:12.292Z,11.11
2022-10-18T01:52:49.419Z,11.16
2022-10-18T01:55:16.060Z,11.14
2022-10-18T01:58:04.068Z,11.11
2022-10-18T02:00:43.989Z,11.14
2022-10-18T02:03:21.034Z,11.21
2022-10-18T02:05:57.933Z,11.17
2022-10-18T02:08:32.708Z,11.17
2022-10-18T02:11:08.050Z,11.23
2022-10-18T02:13:40.278Z,11.33
2022-10-18T02:16:12.157Z,11.32
2022-10-18T02:18:45.182Z,11.40
2022-10-18T02:21:15.737Z,11.45
2022-10-18T02:23:44.717Z,11.38
2022-10-18T02:26:11.643Z,11.37
2022-10-18T02:28:38.872Z,11.38
2022-10-18T02:31:19.578Z,11.34
2022-10-18T02:33:53.307Z,11.36
2022-10-18T02:36:27.732Z,11.45
2022-10-18T02:39:00.316Z,11.44
2022-10-18T02:41:27.833Z,11.43
2022-10-18T02:43:54.432Z,11.43
2022-10-18T02:46:21.222Z,11.44
2022-10-18T02:48:47.827Z,11.44
2022-10-18T02:51:14.548Z,11.38
2022-10-18T02:53:41.162Z,11.44
2022-10-18T02:56:07.867Z,11.46
2022-10-18T02:58:34.244Z,11.47
2022-10-18T03:01:00.716Z,11.47
2022-10-18T03:03:27.228Z,11.48
2022-10-18T03:05:53.619Z,11.49
2022-10-18T03:08:20.291Z,11.48
2022-10-18T03:10:47.162Z,11.46
2022-10-18T03:13:13.966Z,11.44
2022-10-18T03:15:40.417Z,11.43
2022-10-18T03:18:06.744Z,11.44
2022-10-18T03:20:34.196Z,11.41
2022-10-18T03:23:00.589Z,11.39
2022-10-18T03:25:26.941Z,11.37
2022-10-18T03:27:53.383Z,11.37
2022-10-18T03:30:19.910Z,11.37
2022-10-18T03:32:46.266Z,11.41
2022-10-18T03:35:12.628Z,11.39
2022-10-18T03:37:39.161Z,11.39
2022-10-18T03:40:06.375Z,11.41
2022-10-18T03:42:33.095Z,11.35
2022-10-18T03:44:59.695Z,11.40
2022-10-18T03:47:26.145Z,11.44
2022-10-18T03:49:54.732Z,11.48
2022-10-18T03:52:23.536Z,11.50
2022-10-18T03:54:49.893Z,11.45
2022-10-18T03:57:16.269Z,11.51
2022-10-18T03:59:42.843Z,11.49
2022-10-18T04:02:09.239Z,11.46
2022-10-18T04:04:35.664Z,11.47
2022-10-18T04:07:02.107Z,11.54
2022-10-18T04:09:28.451Z,11.51
2022-10-18T04:11:55.050Z,11.44
2022-10-18T04:14:21.443Z,11.46
2022-10-18T04:16:47.851Z,11.50
2022-10-18T04:19:14.502Z,11.52
2022-10-18T04:21:40.922Z,11.55
2022-10-18T04:24:07.568Z,11.59
2022-10-18T04:26:34.164Z,11.62
2022-10-18T04:29:00.678Z,11.65
2022-10-18T04:31:27.056Z,11.62
2022-10-18T04:33:53.670Z,11.58
2022-10-18T04:36:20.057Z,11.64
2022-10-18T04:38:46.738Z,11.67
2022-10-18T04:41:13.179Z,11.73
2022-10-18T04:43:39.489Z,11.74
2022-10-18T04:46:06.070Z,11.75
2022-10-18T04:48:32.656Z,11.76
2022-10-18T04:50:59.212Z,11.75
2022-10-18T04:53:25.737Z,11.76
2022-10-18T04:55:52.070Z,11.76
2022-10-18T04:58:19.113Z,11.76
2022-10-18T05:00:46.074Z,11.76
2022-10-18T05:03:13.152Z,11.75
2022-10-18T05:06:00.135Z,11.74
2022-10-18T05:08:26.443Z,11.74
2022-10-18T05:10:52.995Z,11.70
2022-10-18T05:13:19.510Z,11.71
2022-10-18T05:15:49.056Z,11.70
2022-10-18T05:18:15.402Z,11.67
2022-10-18T05:20:41.937Z,11.66
2022-10-18T05:23:08.312Z,11.64
2022-10-18T05:25:34.638Z,11.62
2022-10-18T05:28:06.348Z,11.61
2022-10-18T05:30:42.291Z,11.59
2022-10-18T05:33:09.339Z,11.57
2022-10-18T05:35:36.095Z,11.56
2022-10-18T05:38:04.894Z,11.55
2022-10-18T05:40:31.838Z,11.62
2022-10-18T05:42:58.304Z,11.60
2022-10-18T05:45:24.777Z,11.60
2022-10-18T05:47:51.089Z,11.59
2022-10-18T05:50:17.597Z,11.59
2022-10-18T05:52:44.140Z,11.63
2022-10-18T05:55:10.455Z,11.65
2022-10-18T05:57:37.594Z,11.65
2022-10-18T06:00:04.652Z,11.62
2022-10-18T06:02:31.327Z,11.64
2022-10-18T06:04:57.687Z,11.61
2022-10-18T06:07:24.100Z,11.63
2022-10-18T06:09:50.454Z,11.59
2022-10-18T06:12:16.848Z,11.61
2022-10-18T06:14:43.630Z,11.56
2022-10-18T06:17:10.780Z,11.56
2022-10-18T06:19:37.121Z,11.53
2022-10-18T06:22:03.505Z,11.53
2022-10-18T06:24:30.044Z,11.53
2022-10-18T06:26:57.562Z,11.66
2022-10-18T06:29:23.901Z,11.64
2022-10-18T06:31:52.733Z,11.65
2022-10-18T06:34:19.406Z,11.64
2022-10-18T06:36:45.777Z,11.70
2022-10-18T06:39:12.290Z,11.76
2022-10-18T06:41:39.900Z,11.78
2022-10-18T06:44:06.331Z,11.92
2022-10-18T06:46:32.849Z,12.12
2022-10-18T06:48:59.250Z,12.25
2022-10-18T06:51:25.671Z,12.32
2022-10-18T06:54:06.119Z,12.46
2022-10-18T06:56:38.886Z,12.67
2022-10-18T06:59:05.669Z,12.99
2022-10-18T07:01:33.499Z,13.17
2022-10-18T07:04:00.295Z,13.29
2022-10-18T07:06:26.620Z,13.27
2022-10-18T07:08:53.105Z,13.48
2022-10-18T07:11:24.648Z,13.91
2022-10-18T07:13:51.987Z,14.23
2022-10-18T07:16:20.758Z,14.58
2022-10-18T07:18:51.976Z,14.69
2022-10-18T07:21:23.366Z,14.94
2022-10-18T07:23:51.983Z,14.94
2022-10-18T07:26:24.329Z,14.85
2022-10-18T07:28:54.163Z,14.85
2022-10-18T07:31:21.547Z,14.77
2022-10-18T07:33:48.149Z,14.63
2022-10-18T07:36:14.478Z,14.53
2022-10-18T07:38:41.575Z,14.71
2022-10-18T07:41:10.453Z,14.93
2022-10-18T07:43:36.858Z,15.05
2022-10-18T07:46:05.104Z,15.18
2022-10-18T07:48:31.901Z,15.12
2022-10-18T07:51:00.127Z,14.99
2022-10-18T07:53:27.630Z,14.95
2022-10-18T07:56:04.704Z,15.15
2022-10-18T07:58:34.123Z,15.18
2022-10-18T08:01:05.762Z,15.28
2022-10-18T08:03:32.174Z,15.30
2022-10-18T08:05:58.675Z,15.45
2022-10-18T08:08:26.132Z,15.53
2022-10-18T08:10:53.973Z,15.62
2022-10-18T08:13:21.179Z,15.90
2022-10-18T08:15:47.647Z,16.05
2022-10-18T08:18:14.407Z,16.05
2022-10-18T08:20:48.869Z,16.15
2022-10-18T08:23:15.322Z,16.08
2022-10-18T08:25:41.731Z,16.14
2022-10-18T08:28:08.524Z,16.41
2022-10-18T08:30:36.136Z,16.73
2022-10-18T08:33:03.789Z,17.08
2022-10-18T08:35:30.668Z,17.42
2022-10-18T08:37:57.414Z,17.41
2022-10-18T08:40:23.834Z,17.89
2022-10-18T08:43:19.335Z,17.87
2022-10-18T08:45:50.954Z,18.34
2022-10-18T08:48:35.592Z,18.23
2022-10-18T08:51:05.000Z,17.79
2022-10-18T08:53:46.245Z,17.55
2022-10-18T08:56:14.171Z,17.74
2022-10-18T08:58:43.617Z,18.23
2022-10-18T09:01:39.433Z,18.32
2022-10-18T09:04:27.953Z,18.62
2022-10-18T09:07:41.056Z,19.12
2022-10-18T09:10:19.332Z,19.53
2022-10-18T09:13:05.377Z,20.13
2022-10-18T09:15:59.637Z,20.12
2022-10-18T09:18:44.700Z,19.65
2022-10-18T09:21:27.382Z,19.61
2022-10-18T09:24:05.550Z,19.63
2022-10-18T09:26:44.560Z,19.57
2022-10-18T09:29:32.350Z,19.64
2022-10-18T09:32:33.255Z,19.44
2022-10-18T09:35:21.579Z,19.27
2022-10-18T09:37:50.098Z,19.09
2022-10-18T09:40:27.605Z,18.90
2022-10-18T09:43:06.863Z,18.76
2022-10-18T09:45:40.094Z,18.95
2022-10-18T09:48:24.047Z,19.10
2022-10-18T09:51:05.643Z,19.73
2022-10-18T09:53:53.108Z,20.19
2022-10-18T09:56:31.551Z,20.41
2022-10-18T09:58:58.048Z,20.25
2022-10-18T10:01:26.720Z,20.09
2022-10-18T10:03:53.450Z,19.93
2022-10-18T10:06:24.346Z,20.20
2022-10-18T10:08:58.769Z,20.28
2022-10-18T10:11:38.751Z,20.87
2022-10-18T10:14:20.513Z,21.50
2022-10-18T10:16:50.414Z,21.75
2022-10-18T10:19:39.681Z,22.04
2022-10-18T10:22:12.165Z,22.41
2022-10-18T10:24:51.566Z,22.42
2022-10-18T10:27:33.890Z,22.64
2022-10-18T10:30:07.043Z,22.81
2022-10-18T10:32:46.483Z,23.04
2022-10-18T10:35:42.198Z,23.71
2022-10-18T10:38:24.715Z,23.39
2022-10-18T10:40:51.983Z,23.24
2022-10-18T10:43:36.518Z,22.86
2022-10-18T10:46:16.419Z,22.81
2022-10-18T10:48:47.568Z,22.62
2022-10-18T10:51:16.079Z,22.42
2022-10-18T10:54:01.053Z,22.11
2022-10-18T10:56:36.592Z,22.60
2022-10-18T10:59:17.776Z,23.04
2022-10-18T11:01:45.153Z,22.89
2022-10-18T11:04:29.850Z,22.51
2022-10-18T11:07:14.810Z,22.18
2022-10-18T11:09:41.536Z,21.87
2022-10-18T11:12:25.895Z,21.59
2022-10-18T11:15:22.266Z,21.49
2022-10-18T11:17:59.101Z,21.80
2022-10-18T11:20:35.178Z,22.03
2022-10-18T11:23:13.569Z,22.18
2022-10-18T11:26:01.977Z,22.06
2022-10-18T11:28:40.404Z,22.02
2022-10-18T11:31:14.921Z,22.03
2022-10-18T11:34:09.217Z,21.45
2022-10-18T11:36:56.154Z,21.21
2022-10-18T11:40:25.874Z,21.70
2022-10-18T11:42:55.417Z,21.88
2022-10-18T11:45:49.877Z,21.59
2022-10-18T11:48:41.662Z,21.18
2022-10-18T11:51:55.976Z,21.13
2022-10-18T11:54:51.053Z,21.53
2022-10-18T11:57:36.337Z,21.80
2022-10-18T12:00:23.270Z,21.88
2022-10-18T12:03:14.680Z,22.47
2022-10-18T12:05:44.227Z,22.00
2022-10-18T12:08:19.928Z,21.76
2022-10-18T12:11:06.709Z,21.70
2022-10-18T12:13:40.985Z,21.81
2022-10-18T12:16:09.230Z,22.17
2022-10-18T12:18:45.475Z,22.75
2022-10-18T12:21:13.330Z,22.86
2022-10-18T12:23:51.762Z,22.35
2022-10-18T12:26:19.515Z,22.20
2022-10-18T12:29:17.080Z,22.01
2022-10-18T12:31:49.345Z,21.44
2022-10-18T12:34:21.775Z,21.29
2022-10-18T12:37:00.141Z,21.20
2022-10-18T12:39:43.669Z,21.29
2022-10-18T12:42:22.827Z,21.33
2022-10-18T12:44:50.090Z,21.49
2022-10-18T12:47:26.049Z,21.92
2022-10-18T12:50:01.865Z,21.95
2022-10-18T12:52:30.975Z,21.80
2022-10-18T12:55:05.556Z,21.54
2022-10-18T12:57:53.851Z,21.56
2022-10-18T13:00:32.167Z,21.71
2022-10-18T13:03:10.673Z,21.67
2022-10-18T13:05:58.404Z,21.77
2022-10-18T13:08:28.415Z,21.59
2022-10-18T13:11:10.136Z,21.42
2022-10-18T13:13:51.577Z,21.20
2022-10-18T13:16:47.167Z,21.05
2022-10-18T13:20:07.756Z,21.29
2022-10-18T13:22:48.168Z,21.21
2022-10-18T13:25:39.042Z,21.07
2022-10-18T13:28:17.544Z,21.05
2022-10-18T13:30:57.386Z,21.18
2022-10-18T13:33:34.092Z,20.98
2022-10-18T13:36:01.796Z,20.87
2022-10-18T13:38:50.147Z,20.69
2022-10-18T13:41:22.070Z,20.67
2022-10-18T13:44:22.727Z,21.03
2022-10-18T13:46:49.332Z,21.08
2022-10-18T13:49:40.281Z,21.41
2022-10-18T13:52:31.530Z,21.37
2022-10-18T13:55:19.543Z,21.68
2022-10-18T13:58:17.848Z,21.63
2022-10-18T14:01:05.349Z,21.33
2022-10-18T14:04:03.066Z,21.41
2022-10-18T14:06:42.528Z,21.21
2022-10-18T14:09:40.249Z,21.17
2022-10-18T14:12:20.462Z,20.92
2022-10-18T14:14:56.112Z,21.01
2022-10-18T14:17:50.484Z,20.81
2022-10-18T14:20:30.250Z,20.76
2022-10-18T14:23:12.751Z,20.95
2022-10-18T14:25:39.386Z,20.97
2022-10-18T14:28:31.461Z,20.70
2022-10-18T14:31:18.130Z,20.42
2022-10-18T14:33:57.971Z,20.39
2022-10-18T14:36:27.149Z,20.15
2022-10-18T14:39:00.541Z,20.15
2022-10-18T14:41:32.049Z,20.13
2022-10-18T14:44:16.703Z,20.06
2022-10-18T14:46:50.444Z,20.00
2022-10-18T14:49:19.082Z,19.95
2022-10-18T14:51:49.825Z,19.95
2022-10-18T14:54:19.221Z,19.94
2022-10-18T14:56:46.015Z,19.96
2022-10-18T14:59:19.672Z,19.95
2022-10-18T15:01:56.227Z,19.89
2022-10-18T15:04:27.797Z,19.87
2022-10-18T15:06:55.321Z,19.82
2022-10-18T15:09:24.348Z,19.78
2022-10-18T15:11:51.478Z,19.69
2022-10-18T15:14:19.892Z,19.74
2022-10-18T15:16:48.881Z,19.71
2022-10-18T15:19:15.362Z,19.69
2022-10-18T15:22:30.651Z,19.63
2022-10-18T15:24:45.384Z,19.57
2022-10-18T15:27:24.171Z,19.55
2022-10-18T15:29:50.872Z,19.51
2022-10-18T15:32:30.682Z,19.46
2022-10-18T15:35:10.227Z,19.39
2022-10-18T15:37:39.481Z,19.37
2022-10-18T15:40:23.998Z,19.34
2022-10-18T15:42:54.251Z,19.29
2022-10-18T15:45:23.443Z,19.24
2022-10-18T15:48:14.280Z,19.22
2022-10-18T15:50:43.094Z,19.16
2022-10-18T15:53:21.446Z,19.13
2022-10-18T15:55:49.772Z,19.11
2022-10-18T15:58:23.868Z,19.08
2022-10-18T16:00:52.775Z,19.06
2022-10-18T16:03:20.617Z,19.02
2022-10-18T16:05:47.093Z,18.96
2022-10-18T16:08:31.719Z,18.92
2022-10-18T16:10:59.571Z,18.85
2022-10-18T16:13:27.115Z,18.85
2022-10-18T16:15:53.890Z,18.79
2022-10-18T16:18:20.552Z,18.73
2022-10-18T16:20:48.449Z,18.70
2022-10-18T16:23:24.103Z,18.66
2022-10-18T16:25:51.424Z,18.63
2022-10-18T16:28:21.451Z,18.61
2022-10-18T16:31:01.717Z,18.57
2022-10-18T16:33:28.234Z,18.54
2022-10-18T16:35:54.601Z,18.50
2022-10-18T16:38:35.252Z,18.47
2022-10-18T16:41:07.280Z,18.46
2022-10-18T16:43:35.173Z,18.43
2022-10-18T16:46:02.827Z,18.39
2022-10-18T16:48:30.116Z,18.39
2022-10-18T16:50:56.751Z,18.35
2022-10-18T16:53:24.192Z,18.31
2022-10-18T16:55:53.596Z,18.28
2022-10-18T16:58:20.350Z,18.24
2022-10-18T17:00:47.085Z,18.20
2022-10-18T17:03:14.416Z,18.16
2022-10-18T17:05:41.901Z,18.12
2022-10-18T17:08:18.107Z,18.11
2022-10-18T17:10:48.822Z,18.10
2022-10-18T17:13:16.008Z,18.06
2022-10-18T17:15:42.836Z,18.08
2022-10-18T17:18:16.791Z,18.06
2022-10-18T17:20:44.580Z,18.05
2022-10-18T17:23:11.453Z,18.03
2022-10-18T17:25:46.500Z,17.99
2022-10-18T17:28:24.620Z,17.94
2022-10-18T17:30:51.092Z,17.84
2022-10-18T17:33:17.752Z,17.84
2022-10-18T17:35:44.312Z,17.82
2022-10-18T17:38:10.934Z,17.88
2022-10-18T17:40:45.518Z,17.82
2022-10-18T17:43:12.055Z,17.74
2022-10-18T17:45:46.438Z,17.66
2022-10-18T17:48:12.838Z,17.63
2022-10-18T17:50:42.565Z,17.58
2022-10-18T17:53:09.955Z,17.54
2022-10-18T17:55:36.339Z,17.50
2022-10-18T17:58:02.660Z,17.46
2022-10-18T18:00:29.133Z,17.47
2022-10-18T18:02:59.835Z,17.45
2022-10-18T18:05:30.228Z,17.44
2022-10-18T18:08:02.734Z,17.42
2022-10-18T18:10:32.925Z,17.37
2022-10-18T18:12:59.408Z,17.35
2022-10-18T18:15:25.910Z,17.27
2022-10-18T18:17:57.011Z,17.20
2022-10-18T18:20:24.622Z,17.14
2022-10-18T18:22:51.796Z,17.05
2022-10-18T18:25:19.062Z,17.02
2022-10-18T18:27:45.634Z,16.97
2022-10-18T18:30:12.049Z,16.93
2022-10-18T18:32:38.599Z,16.90
2022-10-18T18:35:05.866Z,16.88
2022-10-18T18:37:32.633Z,16.87
2022-10-18T18:39:59.010Z,16.84
2022-10-18T18:42:25.362Z,16.83
2022-10-18T18:44:51.644Z,16.83
2022-10-18T18:49:49.361Z,16.78
2022-10-18T18:52:15.801Z,16.73
2022-10-18T18:54:42.329Z,16.71
2022-10-18T18:57:08.768Z,16.66
2022-10-18T18:59:35.339Z,16.55
2022-10-18T19:02:01.915Z,16.50
2022-10-18T19:04:28.709Z,16.45
2022-10-18T19:06:55.093Z,16.40
2022-10-18T19:09:21.549Z,16.33
2022-10-18T19:11:50.776Z,16.26
2022-10-18T19:14:17.294Z,16.17
2022-10-18T19:16:49.072Z,16.11
2022-10-18T19:19:18.543Z,16.03
2022-10-18T19:21:47.480Z,15.95
2022-10-18T19:24:14.196Z,15.86
2022-10-18T19:26:42.104Z,15.80
2022-10-18T19:29:21.398Z,15.73
2022-10-18T19:31:48.842Z,15.66
2022-10-18T19:34:16.251Z,15.56
2022-10-18T19:36:44.969Z,15.49
2022-10-18T19:39:20.491Z,15.40
2022-10-18T19:41:50.811Z,15.31
2022-10-18T19:44:18.543Z,15.23
2022-10-18T19:46:46.325Z,15.17
2022-10-18T19:49:12.978Z,15.10
2022-10-18T19:51:40.157Z,15.06
2022-10-18T19:54:07.060Z,14.99
2022-10-18T19:56:33.732Z,14.99
2022-10-18T19:59:00.343Z,14.96
2022-10-18T20:01:28.467Z,14.89
2022-10-18T20:03:55.299Z,14.82
2022-10-18T20:06:22.168Z,14.75
2022-10-18T20:08:50.346Z,14.68
2022-10-18T20:11:19.613Z,14.63
2022-10-18T20:13:46.653Z,14.55
2022-10-18T20:16:14.953Z,14.50
2022-10-18T20:18:41.820Z,14.44
2022-10-18T20:21:10.089Z,14.39
2022-10-18T20:23:37.990Z,14.38
2022-10-18T20:26:07.362Z,14.36
2022-10-18T20:28:34.623Z,14.34
2022-10-18T20:31:06.652Z,14.33
2022-10-18T20:33:34.229Z,14.37
2022-10-18T20:36:15.036Z,14.33
2022-10-18T20:38:43.269Z,14.28
2022-10-18T20:41:20.204Z,14.25
2022-10-18T20:43:56.722Z,14.20
2022-10-18T20:46:23.781Z,14.16
2022-10-18T20:48:51.624Z,14.07
2022-10-18T20:51:18.934Z,14.02
2022-10-18T20:53:45.760Z,13.97
2022-10-18T20:56:14.682Z,13.91
2022-10-18T20:58:43.232Z,13.86
2022-10-18T21:01:13.359Z,13.85
2022-10-18T21:03:42.339Z,13.80
2022-10-18T21:06:10.240Z,13.73
2022-10-18T21:08:36.923Z,13.68
2022-10-18T21:11:03.642Z,13.63
2022-10-18T21:13:30.676Z,13.59
2022-10-18T21:15:58.114Z,13.55
2022-10-18T21:18:25.981Z,13.51
2022-10-18T21:20:52.979Z,13.54
2022-10-18T21:23:20.253Z,13.48
2022-10-18T21:25:48.344Z,13.44
2022-10-18T21:28:17.648Z,13.42
2022-10-18T21:30:43.971Z,13.38
2022-10-18T21:33:10.276Z,13.36
2022-10-18T21:35:37.715Z,13.35
2022-10-18T21:38:05.026Z,13.33
2022-10-18T21:40:34.743Z,13.33
2022-10-18T21:43:01.326Z,13.27
2022-10-18T21:45:27.786Z,13.21
2022-10-18T21:47:54.277Z,13.15
2022-10-18T21:50:20.853Z,13.10
2022-10-18T21:52:48.453Z,13.07
2022-10-18T21:55:15.019Z,13.08
2022-10-18T21:57:41.350Z,13.03
2022-10-18T22:00:08.277Z,12.99
2022-10-18T22:02:35.030Z,12.93
2022-10-18T22:05:01.832Z,12.90
2022-10-18T22:07:28.180Z,12.87
2022-10-18T22:09:54.570Z,12.86
2022-10-18T22:12:20.933Z,12.85
2022-10-18T22:14:47.397Z,12.78
2022-10-18T22:17:13.724Z,12.73
2022-10-18T22:19:40.299Z,12.69
2022-10-18T22:22:06.717Z,12.67
2022-10-18T22:24:33.178Z,12.63
2022-10-18T22:26:59.588Z,12.62
2022-10-18T22:29:25.904Z,12.62
2022-10-18T22:31:53.854Z,12.64
2022-10-18T22:34:24.187Z,12.66
2022-10-18T22:36:51.195Z,12.62
2022-10-18T22:39:17.817Z,12.61
2022-10-18T22:41:44.403Z,12.65
2022-10-18T22:44:12.906Z,12.65
2022-10-18T22:46:40.117Z,12.67
2022-10-18T22:49:06.764Z,12.70
2022-10-18T22:54:00.316Z,12.76
2022-10-18T22:56:26.681Z,12.75
2022-10-18T22:58:53.128Z,12.76
2022-10-18T23:01:23.778Z,12.80
2022-10-18T23:03:53.715Z,12.82
2022-10-18T23:06:29.264Z,12.82
2022-10-18T23:08:58.196Z,12.80
2022-10-18T23:11:25.739Z,12.79
2022-10-18T23:13:52.450Z,12.82
2022-10-18T23:16:19.088Z,12.79
2022-10-18T23:18:55.729Z,12.77
2022-10-18T23:21:23.628Z,12.73
2022-10-18T23:23:50.791Z,12.73
2022-10-18T23:26:20.204Z,12.71
2022-10-18T23:28:48.613Z,12.69
2022-10-18T23:31:17.340Z,12.70
2022-10-18T23:33:44.585Z,12.69
2022-10-18T23:36:12.435Z,12.64
2022-10-18T23:38:39.577Z,12.59
2022-10-18T23:41:07.768Z,12.56
2022-10-18T23:43:34.911Z,12.51
2022-10-18T23:46:02.670Z,12.46
2022-10-18T23:48:29.339Z,12.40
2022-10-18T23:50:55.881Z,12.36
2022-10-18T23:53:22.465Z,12.35
2022-10-18T23:55:59.506Z,12.30
2022-10-18T23:58:27.334Z,12.21
